createdAt,value
2018-11-28T00:00:19.713Z,36.43
2018-11-28T00:02:47.830Z,41.57
2018-11-28T00:05:15.863Z,35.47
2018-11-28T00:07:43.875Z,38.90
2018-11-28T00:10:13.085Z,37.77
2018-11-28T00:12:41.525Z,38.40
2018-11-28T00:15:12.831Z,34.77
2018-11-28T00:17:41.028Z,38.87
2018-11-28T00:20:11.314Z,36.93
2018-11-28T00:22:39.340Z,38.47
2018-11-28T00:25:08.017Z,35.00
2018-11-28T00:27:36.046Z,35.13
2018-11-28T00:30:06.404Z,35.70
2018-11-28T00:32:34.425Z,38.20
2018-11-28T00:35:02.469Z,37.10
2018-11-28T00:37:30.415Z,37.30
2018-11-28T00:39:58.520Z,35.83
2018-11-28T00:42:29.550Z,33.83
2018-11-28T00:44:58.126Z,36.53
2018-11-28T00:47:26.185Z,37.97
2018-11-28T00:49:54.267Z,35.80
2018-11-28T00:52:22.224Z,36.47
2018-11-28T00:54:50.245Z,34.67
2018-11-28T00:57:18.239Z,32.97
2018-11-28T00:59:46.255Z,34.00
2018-11-28T01:02:14.249Z,33.37
2018-11-28T01:04:42.344Z,39.77
2018-11-28T01:07:10.340Z,36.43
2018-11-28T01:09:38.375Z,36.37
2018-11-28T01:12:06.385Z,35.73
2018-11-28T01:14:34.369Z,37.30
2018-11-28T01:17:02.339Z,38.57
2018-11-28T01:19:30.404Z,40.27
2018-11-28T01:21:58.550Z,36.47
2018-11-28T01:24:26.748Z,38.27
2018-11-28T01:26:54.739Z,36.83
2018-11-28T01:29:22.727Z,37.50
2018-11-28T01:31:50.785Z,36.73
2018-11-28T01:34:18.812Z,39.57
2018-11-28T01:36:46.821Z,38.57
2018-11-28T01:39:14.915Z,33.47
2018-11-28T01:41:42.927Z,36.27
2018-11-28T01:44:11.001Z,34.77
2018-11-28T01:46:39.018Z,37.27
2018-11-28T01:49:07.138Z,37.47
2018-11-28T01:51:35.158Z,34.10
2018-11-28T01:54:03.238Z,36.13
2018-11-28T01:56:31.298Z,37.13
2018-11-28T01:58:59.408Z,34.30
2018-11-28T02:01:27.443Z,38.53
2018-11-28T02:03:55.848Z,40.10
2018-11-28T02:06:23.858Z,36.60
2018-11-28T02:08:51.848Z,32.93
2018-11-28T02:11:19.863Z,36.60
2018-11-28T02:13:47.828Z,37.13
2018-11-28T02:16:15.846Z,35.00
2018-11-28T02:18:43.818Z,38.83
2018-11-28T02:21:11.897Z,38.33
2018-11-28T02:23:40.023Z,41.67
2018-11-28T02:26:08.035Z,40.03
2018-11-28T02:28:36.098Z,42.20
2018-11-28T02:31:04.297Z,38.07
2018-11-28T02:33:32.263Z,35.17
2018-11-28T02:36:00.288Z,39.73
2018-11-28T02:38:28.268Z,41.90
2018-11-28T02:40:56.259Z,40.03
2018-11-28T02:43:24.160Z,35.53
2018-11-28T02:46:03.162Z,41.10
2018-11-28T02:48:31.130Z,39.97
2018-11-28T02:50:59.133Z,37.57
2018-11-28T02:53:27.104Z,35.43
2018-11-28T02:55:55.104Z,40.80
2018-11-28T02:58:23.053Z,37.40
2018-11-28T03:00:51.049Z,38.57
2018-11-28T03:03:19.018Z,42.80
2018-11-28T03:05:47.088Z,37.93
2018-11-28T03:08:15.079Z,40.73
2018-11-28T03:10:43.134Z,39.97
2018-11-28T03:13:11.083Z,36.47
2018-11-28T03:15:40.013Z,39.63
2018-11-28T03:18:08.393Z,43.07
2018-11-28T03:20:36.533Z,38.60
2018-11-28T03:23:05.087Z,36.30
2018-11-28T03:25:33.133Z,37.13
2018-11-28T03:28:01.102Z,37.93
2018-11-28T03:30:29.239Z,37.83
2018-11-28T03:32:59.078Z,41.23
2018-11-28T03:35:27.154Z,42.17
2018-11-28T03:37:55.124Z,38.87
2018-11-28T03:40:23.148Z,37.43
2018-11-28T03:42:51.149Z,40.93
2018-11-28T03:45:19.158Z,38.60
2018-11-28T03:47:47.094Z,40.87
2018-11-28T03:50:15.600Z,40.43
2018-11-28T03:52:43.673Z,40.90
2018-11-28T03:55:13.313Z,35.10
2018-11-28T03:57:41.646Z,44.47
2018-11-28T04:00:14.081Z,44.83
2018-11-28T04:02:42.104Z,43.63
2018-11-28T04:05:10.488Z,37.77
2018-11-28T04:07:38.550Z,38.47
2018-11-28T04:10:10.349Z,40.57
2018-11-28T04:12:39.020Z,37.87
2018-11-28T04:15:24.256Z,41.43
2018-11-28T04:17:52.140Z,40.77
2018-11-28T04:20:23.438Z,40.67
2018-11-28T04:22:51.472Z,41.87
2018-11-28T04:25:22.663Z,38.93
2018-11-28T04:27:50.870Z,39.77
2018-11-28T04:30:22.821Z,42.47
2018-11-28T04:32:51.914Z,39.30
2018-11-28T04:35:19.971Z,37.57
2018-11-28T04:37:47.935Z,40.63
2018-11-28T04:40:17.688Z,37.37
2018-11-28T04:42:46.285Z,39.93
2018-11-28T04:45:16.285Z,45.70
2018-11-28T04:47:44.391Z,37.90
2018-11-28T04:50:12.632Z,41.67
2018-11-28T04:52:40.706Z,41.20
2018-11-28T04:55:10.391Z,39.43
2018-11-28T04:57:38.383Z,44.73
2018-11-28T05:00:24.920Z,39.50
2018-11-28T05:02:54.006Z,36.87
2018-11-28T05:05:21.978Z,46.43
2018-11-28T05:07:50.660Z,42.07
2018-11-28T05:10:21.575Z,42.33
2018-11-28T05:12:50.196Z,40.17
2018-11-28T05:15:19.145Z,44.57
2018-11-28T05:17:49.105Z,45.10
2018-11-28T05:20:20.214Z,39.27
2018-11-28T05:22:48.300Z,34.03
2018-11-28T05:25:18.233Z,33.30
2018-11-28T05:27:46.750Z,38.23
2018-11-28T05:30:17.700Z,40.20
2018-11-28T05:32:45.890Z,42.37
2018-11-28T05:35:15.252Z,38.90
2018-11-28T05:37:43.405Z,36.37
2018-11-28T05:40:19.833Z,40.73
2018-11-28T05:42:48.165Z,39.60
2018-11-28T05:45:16.335Z,39.97
2018-11-28T05:47:44.615Z,37.23
2018-11-28T05:50:18.939Z,39.90
2018-11-28T05:52:47.059Z,39.33
2018-11-28T05:55:16.106Z,39.17
2018-11-28T05:57:44.240Z,37.87
2018-11-28T06:00:17.819Z,40.40
2018-11-28T06:02:45.943Z,39.57
2018-11-28T06:05:13.988Z,35.87
2018-11-28T06:07:42.125Z,38.27
2018-11-28T06:10:10.164Z,35.27
2018-11-28T06:12:38.195Z,39.10
2018-11-28T06:15:08.713Z,38.03
2018-11-28T06:17:37.054Z,33.33
2018-11-28T06:20:08.718Z,37.73
2018-11-28T06:22:37.001Z,38.70
2018-11-28T06:25:06.614Z,41.03
2018-11-28T06:27:34.664Z,38.07
2018-11-28T06:30:02.688Z,36.33
2018-11-28T06:32:30.640Z,36.83
2018-11-28T06:34:58.938Z,39.20
2018-11-28T06:37:26.976Z,38.57
2018-11-28T06:39:54.894Z,35.07
2018-11-28T06:42:22.946Z,41.17
2018-11-28T06:44:51.108Z,36.03
2018-11-28T06:47:19.243Z,39.87
2018-11-28T06:49:47.224Z,38.83
2018-11-28T06:52:15.774Z,33.13
2018-11-28T06:54:43.730Z,39.93
2018-11-28T06:57:11.723Z,41.13
2018-11-28T06:59:39.769Z,39.83
2018-11-28T07:02:07.735Z,40.00
2018-11-28T07:04:35.750Z,36.37
2018-11-28T07:07:03.685Z,39.13
2018-11-28T07:09:31.697Z,37.70
2018-11-28T07:11:59.707Z,38.13
2018-11-28T07:14:27.822Z,38.10
2018-11-28T07:16:55.890Z,36.20
2018-11-28T07:19:24.000Z,38.33
2018-11-28T07:21:51.995Z,32.83
2018-11-28T07:24:19.995Z,38.23
2018-11-28T07:26:47.950Z,33.73
2018-11-28T07:29:16.152Z,32.57
2018-11-28T07:31:44.158Z,33.90
2018-11-28T07:34:12.331Z,30.97
2018-11-28T07:36:40.345Z,30.07
2018-11-28T07:39:08.328Z,24.97
2018-11-28T07:41:36.855Z,28.00
2018-11-28T07:44:04.889Z,28.00
2018-11-28T07:46:32.835Z,26.47
2018-11-28T07:49:00.905Z,29.60
2018-11-28T07:51:28.883Z,29.77
2018-11-28T07:53:56.949Z,27.87
2018-11-28T07:56:24.945Z,27.03
2018-11-28T07:58:53.192Z,30.23
2018-11-28T08:01:21.333Z,27.53
2018-11-28T08:03:50.689Z,26.37
2018-11-28T08:06:19.069Z,29.90
2018-11-28T08:08:47.701Z,29.63
2018-11-28T08:11:15.893Z,25.20
2018-11-28T08:13:44.254Z,26.50
2018-11-28T08:16:12.441Z,26.73
2018-11-28T08:18:40.653Z,27.40
2018-11-28T08:21:08.974Z,27.77
2018-11-28T08:23:37.122Z,28.20
2018-11-28T08:26:05.546Z,21.33
2018-11-28T08:28:33.914Z,23.17
2018-11-28T08:31:02.216Z,24.10
2018-11-28T08:33:30.394Z,23.10
2018-11-28T08:35:58.525Z,28.23
2018-11-28T08:38:26.794Z,19.63
2018-11-28T08:40:54.942Z,21.23
2018-11-28T08:43:23.125Z,24.33
2018-11-28T08:45:51.395Z,21.27
2018-11-28T08:48:19.536Z,22.13
2018-11-28T08:50:48.514Z,22.17
2018-11-28T08:53:16.654Z,21.03
2018-11-28T08:55:45.415Z,17.93
2018-11-28T08:58:13.521Z,22.90
2018-11-28T09:00:41.794Z,22.97
2018-11-28T09:03:09.954Z,17.77
2018-11-28T09:05:38.135Z,22.23
2018-11-28T09:08:06.294Z,22.03
2018-11-28T09:10:34.474Z,22.30
2018-11-28T09:13:04.320Z,20.77
2018-11-28T09:15:31.474Z,21.83
2018-11-28T09:17:59.761Z,22.97
2018-11-28T09:20:28.714Z,22.03
2018-11-28T09:22:56.950Z,22.60
2018-11-28T09:25:25.182Z,17.60
2018-11-28T09:27:54.634Z,24.20
2018-11-28T09:30:23.075Z,24.87
2018-11-28T09:32:51.634Z,24.07
2018-11-28T09:35:19.997Z,22.37
2018-11-28T09:37:48.234Z,25.40
2018-11-28T09:40:17.536Z,21.37
2018-11-28T09:42:45.714Z,22.80
2018-11-28T09:45:15.074Z,23.67
2018-11-28T09:47:43.314Z,25.90
2018-11-28T09:50:14.334Z,23.90
2018-11-28T09:52:42.643Z,25.33
2018-11-28T09:55:12.395Z,21.13
2018-11-28T09:57:40.594Z,21.70
2018-11-28T10:00:13.094Z,23.23
2018-11-28T10:02:41.494Z,20.97
2018-11-28T10:05:11.735Z,21.20
2018-11-28T10:07:40.043Z,19.67
2018-11-28T10:10:10.791Z,23.33
2018-11-28T10:12:39.095Z,20.10
2018-11-28T10:15:10.975Z,23.43
2018-11-28T10:17:39.230Z,20.07
2018-11-28T10:20:08.703Z,22.00
2018-11-28T10:22:36.854Z,22.10
2018-11-28T10:25:06.035Z,22.13
2018-11-28T10:27:34.203Z,21.57
2018-11-28T10:30:02.575Z,24.57
2018-11-28T10:32:30.718Z,25.47
2018-11-28T10:34:58.956Z,20.83
2018-11-28T10:37:27.495Z,22.80
2018-11-28T10:39:55.675Z,25.63
2018-11-28T10:42:24.090Z,22.07
2018-11-28T10:44:52.096Z,21.90
2018-11-28T10:47:20.204Z,22.27
2018-11-28T10:49:48.495Z,22.23
2018-11-28T10:52:16.896Z,22.07
2018-11-28T10:54:45.196Z,23.57
2018-11-28T10:57:13.344Z,22.37
2018-11-28T10:59:41.524Z,22.27
2018-11-28T11:02:15.024Z,24.20
2018-11-28T11:04:48.596Z,22.50
2018-11-28T11:07:22.195Z,22.77
2018-11-28T11:10:00.124Z,27.90
2018-11-28T11:12:33.784Z,28.17
2018-11-28T11:15:02.012Z,25.07
2018-11-28T11:17:31.075Z,18.07
2018-11-28T11:19:59.312Z,24.77
2018-11-28T11:22:27.555Z,24.40
2018-11-28T11:24:55.695Z,20.97
2018-11-28T11:27:23.878Z,25.30
2018-11-28T11:29:52.115Z,22.57
2018-11-28T11:32:20.795Z,20.80
2018-11-28T11:34:49.015Z,25.27
2018-11-28T11:37:17.203Z,25.23
2018-11-28T11:39:45.475Z,24.27
2018-11-28T11:42:13.717Z,22.23
2018-11-28T11:44:41.995Z,18.60
2018-11-28T11:47:10.236Z,22.13
2018-11-28T11:49:38.436Z,14.97
2018-11-28T11:52:06.596Z,20.93
2018-11-28T11:54:34.844Z,22.13
2018-11-28T11:57:03.027Z,19.67
2018-11-28T11:59:31.292Z,20.37
2018-11-28T12:01:59.556Z,19.37
2018-11-28T12:04:27.815Z,19.67
2018-11-28T12:06:56.096Z,18.87
2018-11-28T12:09:24.246Z,19.13
2018-11-28T12:11:52.538Z,22.63
2018-11-28T12:14:21.095Z,22.53
2018-11-28T12:16:49.436Z,22.03
2018-11-28T12:19:17.696Z,20.73
2018-11-28T12:21:45.956Z,16.90
2018-11-28T12:24:14.234Z,17.03
2018-11-28T12:26:42.557Z,22.70
2018-11-28T12:29:10.815Z,18.37
2018-11-28T12:31:39.373Z,12.80
2018-11-28T12:34:07.610Z,17.20
2018-11-28T12:36:36.139Z,19.47
2018-11-28T12:39:07.039Z,15.33
2018-11-28T12:41:36.105Z,19.00
2018-11-28T12:44:04.922Z,22.03
2018-11-28T12:46:33.619Z,22.03
2018-11-28T12:49:02.139Z,16.57
2018-11-28T12:51:30.747Z,22.20
2018-11-28T12:53:59.327Z,19.30
2018-11-28T12:56:28.047Z,20.50
2018-11-28T12:58:56.608Z,20.33
2018-11-28T13:01:25.126Z,17.40
2018-11-28T13:03:53.587Z,21.23
2018-11-28T13:06:22.226Z,18.97
2018-11-28T13:08:50.786Z,16.33
2018-11-28T13:11:19.366Z,23.30
2018-11-28T13:13:48.006Z,25.77
2018-11-28T13:16:16.844Z,26.13
2018-11-28T13:18:45.389Z,24.13
2018-11-28T13:21:13.815Z,23.07
2018-11-28T13:23:42.413Z,24.27
2018-11-28T13:26:10.952Z,22.60
2018-11-28T13:28:39.909Z,23.37
2018-11-28T13:31:08.410Z,21.73
2018-11-28T13:33:36.949Z,23.47
2018-11-28T13:36:05.988Z,25.43
2018-11-28T13:38:34.610Z,25.37
2018-11-28T13:41:03.669Z,27.40
2018-11-28T13:43:35.736Z,23.57
2018-11-28T13:46:07.152Z,24.43
2018-11-28T13:48:33.177Z,23.80
2018-11-28T13:51:01.629Z,24.53
2018-11-28T13:53:30.189Z,20.03
2018-11-28T13:58:27.949Z,25.77
2018-11-28T14:00:56.569Z,23.57
2018-11-28T14:03:25.150Z,26.87
2018-11-28T14:05:53.688Z,22.43
2018-11-28T14:08:22.389Z,24.60
2018-11-28T14:10:51.129Z,22.90
2018-11-28T14:13:19.638Z,28.17
2018-11-28T14:15:48.210Z,26.53
2018-11-28T14:18:18.088Z,24.27
2018-11-28T14:20:46.849Z,19.63
2018-11-28T14:23:15.528Z,23.33
2018-11-28T14:25:44.355Z,23.13
2018-11-28T14:28:13.309Z,25.63
2018-11-28T14:30:43.237Z,24.43
2018-11-28T14:33:11.737Z,24.27
2018-11-28T14:35:40.290Z,28.50
2018-11-28T14:38:08.890Z,21.77
2018-11-28T14:40:37.519Z,24.27
2018-11-28T14:43:07.014Z,21.70
2018-11-28T14:45:36.109Z,23.47
2018-11-28T14:48:04.879Z,22.87
2018-11-28T14:50:33.619Z,24.57
2018-11-28T14:53:03.220Z,26.67
2018-11-28T14:55:34.157Z,23.43
2018-11-28T14:58:02.677Z,24.07
2018-11-28T15:00:32.117Z,25.47
2018-11-28T15:03:04.076Z,22.27
2018-11-28T15:06:07.457Z,24.77
2018-11-28T15:08:36.237Z,25.23
2018-11-28T15:11:06.989Z,24.53
2018-11-28T15:13:35.969Z,23.57
2018-11-28T15:16:04.669Z,26.67
2018-11-28T15:18:33.257Z,23.07
2018-11-28T15:21:02.272Z,25.43
2018-11-28T15:23:30.751Z,22.37
2018-11-28T15:26:00.329Z,25.73
2018-11-28T15:28:28.109Z,26.70
2018-11-28T15:30:56.669Z,28.07
2018-11-28T15:33:26.089Z,25.23
2018-11-28T15:35:54.729Z,26.00
2018-11-28T15:38:23.311Z,25.23
2018-11-28T15:40:51.849Z,23.93
2018-11-28T15:43:20.457Z,28.30
2018-11-28T15:45:49.109Z,25.13
2018-11-28T15:48:17.591Z,25.07
2018-11-28T15:50:46.129Z,25.73
2018-11-28T15:53:14.738Z,29.43
2018-11-28T15:55:43.319Z,25.37
2018-11-28T15:58:11.949Z,28.47
2018-11-28T16:00:40.569Z,27.90
2018-11-28T16:03:09.056Z,25.20
2018-11-28T16:05:37.689Z,26.23
2018-11-28T16:08:06.389Z,24.47
2018-11-28T16:10:39.849Z,25.67
2018-11-28T16:13:08.488Z,27.10
2018-11-28T16:15:45.497Z,27.70
2018-11-28T16:18:14.118Z,24.53
2018-11-28T16:20:42.729Z,23.80
2018-11-28T16:23:11.357Z,28.83
2018-11-28T16:25:40.149Z,27.63
2018-11-28T16:28:09.289Z,26.23
2018-11-28T16:30:37.969Z,26.23
2018-11-28T16:33:07.396Z,24.23
2018-11-28T16:35:36.956Z,25.70
2018-11-28T16:38:06.337Z,24.20
2018-11-28T16:40:35.057Z,24.60
2018-11-28T16:43:03.708Z,20.77
2018-11-28T16:45:32.377Z,20.20
2018-11-28T16:48:00.969Z,23.47
2018-11-28T16:50:29.617Z,27.83
2018-11-28T16:52:58.168Z,25.70
2018-11-28T16:55:26.692Z,22.70
2018-11-28T16:57:55.748Z,24.37
2018-11-28T17:00:26.028Z,27.30
2018-11-28T17:02:55.389Z,24.30
2018-11-28T17:05:24.209Z,22.40
2018-11-28T17:07:53.388Z,30.87
2018-11-28T17:10:24.088Z,28.23
2018-11-28T17:12:53.529Z,17.07
2018-11-28T17:15:22.229Z,19.53
2018-11-28T17:17:51.028Z,23.50
2018-11-28T17:20:23.656Z,15.80
2018-11-28T17:22:53.335Z,21.07
2018-11-28T17:25:23.036Z,25.33
2018-11-28T17:27:51.725Z,22.17
2018-11-28T17:30:21.774Z,25.23
2018-11-28T17:32:50.867Z,21.67
2018-11-28T17:35:19.508Z,23.80
2018-11-28T17:37:48.908Z,28.70
2018-11-28T17:40:19.888Z,17.90
2018-11-28T17:42:50.608Z,19.57
2018-11-28T17:45:19.560Z,21.77
2018-11-28T17:47:48.220Z,23.40
2018-11-28T17:50:19.828Z,23.80
2018-11-28T17:53:19.632Z,20.43
2018-11-28T17:55:50.466Z,26.27
2018-11-28T17:58:19.172Z,19.33
2018-11-28T18:00:47.704Z,24.77
2018-11-28T18:03:16.444Z,22.30
2018-11-28T18:05:44.964Z,19.27
2018-11-28T18:08:13.687Z,24.07
2018-11-28T18:10:46.570Z,24.13
2018-11-28T18:13:18.204Z,21.53
2018-11-28T18:15:51.484Z,22.13
2018-11-28T18:18:21.864Z,21.83
2018-11-28T18:20:50.559Z,22.97
2018-11-28T18:23:19.175Z,23.63
2018-11-28T18:25:47.884Z,21.60
2018-11-28T18:28:16.644Z,22.70
2018-11-28T18:30:45.224Z,25.03
2018-11-28T18:33:14.531Z,16.87
2018-11-28T18:35:43.345Z,26.43
2018-11-28T18:38:12.004Z,19.37
2018-11-28T18:40:40.984Z,22.57
2018-11-28T18:43:10.424Z,24.07
2018-11-28T18:45:44.333Z,22.13
2018-11-28T18:48:12.912Z,20.27
2018-11-28T18:50:41.404Z,22.73
2018-11-28T18:53:10.032Z,21.03
2018-11-28T18:55:38.886Z,25.50
2018-11-28T18:58:09.066Z,19.43
2018-11-28T19:00:37.583Z,22.27
2018-11-28T19:03:07.306Z,25.90
2018-11-28T19:05:35.903Z,25.37
2018-11-28T19:08:04.724Z,26.73
2018-11-28T19:10:33.704Z,25.63
2018-11-28T19:13:02.547Z,27.00
2018-11-28T19:15:31.404Z,26.60
2018-11-28T19:18:00.666Z,25.53
2018-11-28T19:20:29.612Z,26.17
2018-11-28T19:22:58.832Z,27.80
2018-11-28T19:25:28.952Z,28.33
2018-11-28T19:27:57.912Z,27.30
2018-11-28T19:30:31.000Z,30.20
2018-11-28T19:32:57.384Z,25.13
2018-11-28T19:35:26.168Z,28.27
2018-11-28T19:37:54.994Z,26.70
2018-11-28T19:40:26.403Z,28.73
2018-11-28T19:42:55.323Z,30.17
2018-11-28T19:45:24.085Z,29.27
2018-11-28T19:47:52.823Z,28.67
2018-11-28T19:50:27.183Z,30.03
2018-11-28T19:52:55.864Z,35.00
2018-11-28T19:55:24.804Z,33.73
2018-11-28T19:57:53.564Z,34.93
2018-11-28T20:00:23.164Z,30.90
2018-11-28T20:02:52.585Z,34.27
2018-11-28T20:05:22.524Z,32.70
2018-11-28T20:07:53.143Z,30.20
2018-11-28T20:10:23.865Z,30.10
2018-11-28T20:12:52.884Z,29.90
2018-11-28T20:15:24.464Z,28.80
2018-11-28T20:17:53.503Z,29.53
2018-11-28T20:20:22.244Z,33.30
2018-11-28T20:22:50.783Z,36.43
2018-11-28T20:25:20.784Z,32.17
2018-11-28T20:27:52.464Z,29.33
2018-11-28T20:30:24.603Z,34.17
2018-11-28T20:32:53.444Z,33.30
2018-11-28T20:35:22.545Z,33.73
2018-11-28T20:37:51.724Z,34.40
2018-11-28T20:40:20.544Z,33.37
2018-11-28T20:42:52.747Z,30.20
2018-11-28T20:45:22.104Z,32.83
2018-11-28T20:47:50.784Z,28.90
2018-11-28T20:50:24.994Z,30.30
2018-11-28T20:52:55.910Z,31.13
2018-11-28T20:55:25.565Z,29.43
2018-11-28T20:57:55.135Z,35.47
2018-11-28T21:00:25.162Z,31.87
2018-11-28T21:02:53.993Z,30.50
2018-11-28T21:05:22.530Z,31.07
2018-11-28T21:07:51.233Z,33.47
2018-11-28T21:10:25.462Z,32.00
2018-11-28T21:12:54.363Z,34.87
2018-11-28T21:15:23.091Z,36.67
2018-11-28T21:17:52.074Z,32.80
2018-11-28T21:20:21.949Z,36.03
2018-11-28T21:22:52.788Z,37.73
2018-11-28T21:25:21.974Z,26.27
2018-11-28T21:27:51.543Z,35.47
2018-11-28T21:30:20.837Z,36.23
2018-11-28T21:32:51.707Z,36.80
2018-11-28T21:35:25.242Z,31.13
2018-11-28T21:37:54.838Z,30.40
2018-11-28T21:40:23.552Z,38.67
2018-11-28T21:42:54.938Z,33.70
2018-11-28T21:45:24.378Z,31.93
2018-11-28T21:47:53.188Z,33.67
2018-11-28T21:50:22.078Z,31.50
2018-11-28T21:52:50.827Z,30.03
2018-11-28T21:55:21.623Z,32.57
2018-11-28T21:57:51.323Z,26.60
2018-11-28T22:00:21.922Z,29.53
2018-11-28T22:02:50.960Z,32.13
2018-11-28T22:05:19.588Z,29.93
2018-11-28T22:07:48.418Z,24.73
2018-11-28T22:10:25.754Z,29.80
2018-11-28T22:12:55.688Z,27.27
2018-11-28T22:15:24.629Z,31.10
2018-11-28T22:17:54.925Z,29.30
2018-11-28T22:20:24.548Z,26.40
2018-11-28T22:22:53.620Z,30.97
2018-11-28T22:25:23.520Z,30.90
2018-11-28T22:27:52.238Z,29.30
2018-11-28T22:30:21.992Z,27.07
2018-11-28T22:32:50.836Z,28.13
2018-11-28T22:35:19.587Z,31.07
2018-11-28T22:37:48.829Z,32.87
2018-11-28T22:40:19.661Z,28.60
2018-11-28T22:42:48.510Z,32.50
2018-11-28T22:45:19.265Z,32.63
2018-11-28T22:47:47.919Z,28.83
2018-11-28T22:50:16.597Z,27.00
2018-11-28T22:52:45.473Z,29.73
2018-11-28T22:55:19.517Z,25.40
2018-11-28T22:57:48.155Z,31.27
2018-11-28T23:00:26.696Z,27.30
2018-11-28T23:03:01.241Z,30.67
2018-11-28T23:05:36.159Z,30.33
2018-11-28T23:08:07.106Z,30.20
2018-11-28T23:10:35.704Z,26.87
2018-11-28T23:13:04.285Z,33.17
2018-11-28T23:15:33.275Z,31.47
2018-11-28T23:18:02.002Z,23.63
2018-11-28T23:20:30.606Z,27.90
2018-11-28T23:22:59.139Z,28.23
2018-11-28T23:25:27.794Z,29.93
2018-11-28T23:27:56.515Z,30.80
2018-11-28T23:30:25.227Z,31.00
2018-11-28T23:32:54.890Z,28.53
2018-11-28T23:35:24.068Z,28.57
2018-11-28T23:37:52.583Z,28.67
2018-11-28T23:40:23.193Z,27.57
2018-11-28T23:42:52.315Z,27.43
2018-11-28T23:45:21.167Z,28.87
2018-11-28T23:47:49.921Z,25.23
2018-11-28T23:50:21.463Z,28.07
2018-11-28T23:52:50.774Z,26.73
2018-11-28T23:55:25.928Z,18.50
2018-11-28T23:57:54.930Z,28.93
